sensor_id;sensor_type;location;lat;lon;timestamp;temperature;humidity
16879;DHT22;8556;52.218;9.884;2022-12-24T00:01:29;7.70;99.90
16879;DHT22;8556;52.218;9.884;2022-12-24T00:03:56;7.60;99.90
16879;DHT22;8556;52.218;9.884;2022-12-24T00:06:23;7.70;99.90
16879;DHT22;8556;52.218;9.884;2022-12-24T00:08:50;7.60;99.90
16879;DHT22;8556;52.218;9.884;2022-12-24T00:11:19;7.60;99.90
16879;DHT22;8556;52.218;9.884;2022-12-24T00:13:46;7.60;99.90
16879;DHT22;8556;52.218;9.884;2022-12-24T00:16:13;7.60;99.90
16879;DHT22;8556;52.218;9.884;2022-12-24T00:18:40;7.60;99.90
16879;DHT22;8556;52.218;9.884;2022-12-24T00:21:06;7.60;99.90
16879;DHT22;8556;52.218;9.884;2022-12-24T00:23:33;7.70;99.90
16879;DHT22;8556;52.218;9.884;2022-12-24T00:26:00;7.70;99.90
16879;DHT22;8556;52.218;9.884;2022-12-24T00:28:28;7.70;99.90
16879;DHT22;8556;52.218;9.884;2022-12-24T00:30:55;7.70;99.90
16879;DHT22;8556;52.218;9.884;2022-12-24T00:33:22;7.60;99.90
16879;DHT22;8556;52.218;9.884;2022-12-24T00:35:49;7.60;99.90
16879;DHT22;8556;52.218;9.884;2022-12-24T00:38:17;7.50;99.90
16879;DHT22;8556;52.218;9.884;2022-12-24T00:40:43;7.50;99.90
16879;DHT22;8556;52.218;9.884;2022-12-24T00:43:10;7.60;99.90
16879;DHT22;8556;52.218;9.884;2022-12-24T00:45:38;7.50;99.90
16879;DHT22;8556;52.218;9.884;2022-12-24T00:48:05;7.60;99.90
16879;DHT22;8556;52.218;9.884;2022-12-24T00:50:32;7.50;99.90
16879;DHT22;8556;52.218;9.884;2022-12-24T00:52:59;7.60;99.90
16879;DHT22;8556;52.218;9.884;2022-12-24T00:55:26;7.60;99.90
16879;DHT22;8556;52.218;9.884;2022-12-24T00:57:52;7.50;99.90
16879;DHT22;8556;52.218;9.884;2022-12-24T01:00:19;7.60;99.90
16879;DHT22;8556;52.218;9.884;2022-12-24T01:02:47;7.50;99.90
16879;DHT22;8556;52.218;9.884;2022-12-24T01:05:14;7.50;99.90
16879;DHT22;8556;52.218;9.884;2022-12-24T01:07:45;7.50;99.90
16879;DHT22;8556;52.218;9.884;2022-12-24T01:10:13;7.50;99.90
16879;DHT22;8556;52.218;9.884;2022-12-24T01:12:41;7.50;99.90
16879;DHT22;8556;52.218;9.884;2022-12-24T01:15:09;7.60;99.90
16879;DHT22;8556;52.218;9.884;2022-12-24T01:17:36;7.60;99.90
16879;DHT22;8556;52.218;9.884;2022-12-24T01:20:08;7.50;99.90
16879;DHT22;8556;52.218;9.884;2022-12-24T01:22:35;7.50;99.90
16879;DHT22;8556;52.218;9.884;2022-12-24T01:25:02;7.50;99.90
16879;DHT22;8556;52.218;9.884;2022-12-24T01:27:29;7.60;99.90
16879;DHT22;8556;52.218;9.884;2022-12-24T01:29:57;7.60;99.90
16879;DHT22;8556;52.218;9.884;2022-12-24T01:32:24;7.60;99.90
16879;DHT22;8556;52.218;9.884;2022-12-24T01:34:50;7.50;99.90
16879;DHT22;8556;52.218;9.884;2022-12-24T01:37:19;7.40;99.90
16879;DHT22;8556;52.218;9.884;2022-12-24T01:39:45;7.50;99.90
16879;DHT22;8556;52.218;9.884;2022-12-24T01:42:16;7.50;99.90
16879;DHT22;8556;52.218;9.884;2022-12-24T01:45:38;7.60;99.90
16879;DHT22;8556;52.218;9.884;2022-12-24T01:48:22;7.60;99.90
16879;DHT22;8556;52.218;9.884;2022-12-24T01:50:54;7.60;99.90
16879;DHT22;8556;52.218;9.884;2022-12-24T01:53:24;7.60;99.90
16879;DHT22;8556;52.218;9.884;2022-12-24T01:55:52;7.60;99.90
16879;DHT22;8556;52.218;9.884;2022-12-24T01:58:20;7.50;99.90
16879;DHT22;8556;52.218;9.884;2022-12-24T02:00:49;7.60;99.90
16879;DHT22;8556;52.218;9.884;2022-12-24T02:03:16;7.60;99.90
16879;DHT22;8556;52.218;9.884;2022-12-24T02:05:46;7.70;99.90
16879;DHT22;8556;52.218;9.884;2022-12-24T02:08:15;8.00;99.90
16879;DHT22;8556;52.218;9.884;2022-12-24T02:10:44;8.20;99.90
16879;DHT22;8556;52.218;9.884;2022-12-24T02:13:11;8.30;99.90
16879;DHT22;8556;52.218;9.884;2022-12-24T02:15:48;8.50;99.90
16879;DHT22;8556;52.218;9.884;2022-12-24T02:18:22;8.60;99.90
16879;DHT22;8556;52.218;9.884;2022-12-24T02:21:22;8.70;99.90
16879;DHT22;8556;52.218;9.884;2022-12-24T02:27:16;9.40;99.90
16879;DHT22;8556;52.218;9.884;2022-12-24T02:30:07;9.60;99.90
16879;DHT22;8556;52.218;9.884;2022-12-24T02:32:57;9.60;99.90
16879;DHT22;8556;52.218;9.884;2022-12-24T02:35:36;9.80;99.90
16879;DHT22;8556;52.218;9.884;2022-12-24T02:38:07;9.90;99.90
16879;DHT22;8556;52.218;9.884;2022-12-24T02:40:39;9.80;99.90
16879;DHT22;8556;52.218;9.884;2022-12-24T02:43:13;10.00;99.90
16879;DHT22;8556;52.218;9.884;2022-12-24T02:45:44;10.10;99.90
16879;DHT22;8556;52.218;9.884;2022-12-24T02:48:12;10.10;99.90
16879;DHT22;8556;52.218;9.884;2022-12-24T02:50:53;10.10;99.90
16879;DHT22;8556;52.218;9.884;2022-12-24T02:53:20;10.10;99.90
16879;DHT22;8556;52.218;9.884;2022-12-24T02:55:57;10.20;99.90
16879;DHT22;8556;52.218;9.884;2022-12-24T02:58:35;10.20;99.90
16879;DHT22;8556;52.218;9.884;2022-12-24T03:01:11;10.20;99.90
16879;DHT22;8556;52.218;9.884;2022-12-24T03:03:53;10.10;99.90
16879;DHT22;8556;52.218;9.884;2022-12-24T03:06:26;10.10;99.90
16879;DHT22;8556;52.218;9.884;2022-12-24T03:09:00;10.10;99.90
16879;DHT22;8556;52.218;9.884;2022-12-24T03:11:28;10.10;99.90
16879;DHT22;8556;52.218;9.884;2022-12-24T03:13:56;10.10;99.90
16879;DHT22;8556;52.218;9.884;2022-12-24T03:16:26;10.10;99.90
16879;DHT22;8556;52.218;9.884;2022-12-24T03:18:55;10.10;99.90
16879;DHT22;8556;52.218;9.884;2022-12-24T03:21:26;10.20;99.90
16879;DHT22;8556;52.218;9.884;2022-12-24T03:23:55;10.20;99.90
16879;DHT22;8556;52.218;9.884;2022-12-24T03:26:23;10.30;99.90
16879;DHT22;8556;52.218;9.884;2022-12-24T03:28:50;10.30;99.90
16879;DHT22;8556;52.218;9.884;2022-12-24T03:31:17;10.30;99.90
16879;DHT22;8556;52.218;9.884;2022-12-24T03:33:46;10.30;99.90
16879;DHT22;8556;52.218;9.884;2022-12-24T03:36:13;10.30;99.90
16879;DHT22;8556;52.218;9.884;2022-12-24T03:38:40;10.30;99.90
16879;DHT22;8556;52.218;9.884;2022-12-24T03:41:07;10.30;99.90
16879;DHT22;8556;52.218;9.884;2022-12-24T03:43:34;10.30;99.90
16879;DHT22;8556;52.218;9.884;2022-12-24T03:46:03;10.30;99.90
16879;DHT22;8556;52.218;9.884;2022-12-24T03:48:42;10.40;99.90
16879;DHT22;8556;52.218;9.884;2022-12-24T03:51:16;10.30;99.90
16879;DHT22;8556;52.218;9.884;2022-12-24T03:53:43;10.30;99.90
16879;DHT22;8556;52.218;9.884;2022-12-24T03:56:10;10.30;99.90
16879;DHT22;8556;52.218;9.884;2022-12-24T03:58:36;10.40;99.90
16879;DHT22;8556;52.218;9.884;2022-12-24T04:01:03;10.30;99.90
16879;DHT22;8556;52.218;9.884;2022-12-24T04:03:30;10.30;99.90
16879;DHT22;8556;52.218;9.884;2022-12-24T04:06:01;10.40;99.90
16879;DHT22;8556;52.218;9.884;2022-12-24T04:08:30;10.30;99.90
16879;DHT22;8556;52.218;9.884;2022-12-24T04:10:57;10.40;99.90
16879;DHT22;8556;52.218;9.884;2022-12-24T04:13:24;10.40;99.90
16879;DHT22;8556;52.218;9.884;2022-12-24T04:15:56;10.40;99.90
16879;DHT22;8556;52.218;9.884;2022-12-24T04:18:23;10.30;99.90
16879;DHT22;8556;52.218;9.884;2022-12-24T04:20:50;10.30;99.90
16879;DHT22;8556;52.218;9.884;2022-12-24T04:23:17;10.30;99.90
16879;DHT22;8556;52.218;9.884;2022-12-24T04:25:45;10.20;99.90
16879;DHT22;8556;52.218;9.884;2022-12-24T04:28:13;10.20;99.90
16879;DHT22;8556;52.218;9.884;2022-12-24T04:30:40;10.10;99.90
16879;DHT22;8556;52.218;9.884;2022-12-24T04:33:07;10.10;99.90
16879;DHT22;8556;52.218;9.884;2022-12-24T04:35:38;10.10;99.90
16879;DHT22;8556;52.218;9.884;2022-12-24T04:38:05;10.20;99.90
16879;DHT22;8556;52.218;9.884;2022-12-24T04:40:32;10.20;99.90
16879;DHT22;8556;52.218;9.884;2022-12-24T04:43:00;10.40;99.90
16879;DHT22;8556;52.218;9.884;2022-12-24T04:45:27;10.30;99.90
16879;DHT22;8556;52.218;9.884;2022-12-24T04:47:54;10.30;99.90
16879;DHT22;8556;52.218;9.884;2022-12-24T04:50:21;10.30;99.90
16879;DHT22;8556;52.218;9.884;2022-12-24T04:52:47;10.30;99.90
16879;DHT22;8556;52.218;9.884;2022-12-24T04:55:14;10.30;99.90
16879;DHT22;8556;52.218;9.884;2022-12-24T04:57:41;10.30;99.90
16879;DHT22;8556;52.218;9.884;2022-12-24T05:00:10;10.30;99.90
16879;DHT22;8556;52.218;9.884;2022-12-24T05:02:37;10.20;99.90
16879;DHT22;8556;52.218;9.884;2022-12-24T05:05:04;10.10;99.90
16879;DHT22;8556;52.218;9.884;2022-12-24T05:07:33;10.10;99.90
16879;DHT22;8556;52.218;9.884;2022-12-24T05:10:00;10.00;99.90
16879;DHT22;8556;52.218;9.884;2022-12-24T05:12:26;10.00;99.90
16879;DHT22;8556;52.218;9.884;2022-12-24T05:14:53;10.10;99.90
16879;DHT22;8556;52.218;9.884;2022-12-24T05:17:21;10.10;99.90
16879;DHT22;8556;52.218;9.884;2022-12-24T05:19:48;10.20;99.90
16879;DHT22;8556;52.218;9.884;2022-12-24T05:22:15;10.30;99.90
16879;DHT22;8556;52.218;9.884;2022-12-24T05:24:59;10.30;99.90
16879;DHT22;8556;52.218;9.884;2022-12-24T05:27:43;10.20;99.90
16879;DHT22;8556;52.218;9.884;2022-12-24T05:30:11;10.10;99.90
16879;DHT22;8556;52.218;9.884;2022-12-24T05:32:39;10.10;99.90
16879;DHT22;8556;52.218;9.884;2022-12-24T05:35:06;10.10;99.90
16879;DHT22;8556;52.218;9.884;2022-12-24T05:37:33;10.20;99.90
16879;DHT22;8556;52.218;9.884;2022-12-24T05:40:00;10.20;99.90
16879;DHT22;8556;52.218;9.884;2022-12-24T05:42:27;10.00;99.90
16879;DHT22;8556;52.218;9.884;2022-12-24T05:44:54;10.10;99.90
16879;DHT22;8556;52.218;9.884;2022-12-24T05:47:20;10.10;99.90
16879;DHT22;8556;52.218;9.884;2022-12-24T05:49:48;10.10;99.90
16879;DHT22;8556;52.218;9.884;2022-12-24T05:52:15;10.00;99.90
16879;DHT22;8556;52.218;9.884;2022-12-24T05:54:45;10.00;99.90
16879;DHT22;8556;52.218;9.884;2022-12-24T05:57:11;10.00;99.90
16879;DHT22;8556;52.218;9.884;2022-12-24T05:59:38;9.90;99.90
16879;DHT22;8556;52.218;9.884;2022-12-24T06:02:05;9.90;99.90
16879;DHT22;8556;52.218;9.884;2022-12-24T06:04:32;9.80;99.90
16879;DHT22;8556;52.218;9.884;2022-12-24T06:07:00;9.90;99.90
16879;DHT22;8556;52.218;9.884;2022-12-24T06:09:27;10.00;99.90
16879;DHT22;8556;52.218;9.884;2022-12-24T06:11:53;9.90;99.90
16879;DHT22;8556;52.218;9.884;2022-12-24T06:14:20;9.90;99.90
16879;DHT22;8556;52.218;9.884;2022-12-24T06:16:47;10.00;99.90
16879;DHT22;8556;52.218;9.884;2022-12-24T06:19:14;10.00;99.90
16879;DHT22;8556;52.218;9.884;2022-12-24T06:21:41;10.00;99.90
16879;DHT22;8556;52.218;9.884;2022-12-24T06:24:09;10.10;99.90
16879;DHT22;8556;52.218;9.884;2022-12-24T06:26:35;10.10;99.90
16879;DHT22;8556;52.218;9.884;2022-12-24T06:29:02;10.10;99.90
16879;DHT22;8556;52.218;9.884;2022-12-24T06:31:29;10.10;99.90
16879;DHT22;8556;52.218;9.884;2022-12-24T06:33:56;10.10;99.90
16879;DHT22;8556;52.218;9.884;2022-12-24T06:36:24;10.10;99.90
16879;DHT22;8556;52.218;9.884;2022-12-24T06:38:52;10.10;99.90
16879;DHT22;8556;52.218;9.884;2022-12-24T06:41:21;10.10;99.90
16879;DHT22;8556;52.218;9.884;2022-12-24T06:43:49;10.00;99.90
16879;DHT22;8556;52.218;9.884;2022-12-24T06:46:17;10.00;99.90
16879;DHT22;8556;52.218;9.884;2022-12-24T06:48:44;10.00;99.90
16879;DHT22;8556;52.218;9.884;2022-12-24T06:51:12;9.90;99.90
16879;DHT22;8556;52.218;9.884;2022-12-24T06:53:39;9.80;99.90
16879;DHT22;8556;52.218;9.884;2022-12-24T06:56:07;9.80;99.90
16879;DHT22;8556;52.218;9.884;2022-12-24T06:58:36;9.80;99.90
16879;DHT22;8556;52.218;9.884;2022-12-24T07:01:04;10.00;99.90
16879;DHT22;8556;52.218;9.884;2022-12-24T07:03:32;9.70;99.90
16879;DHT22;8556;52.218;9.884;2022-12-24T07:05:59;9.70;99.90
16879;DHT22;8556;52.218;9.884;2022-12-24T07:08:26;9.80;99.90
16879;DHT22;8556;52.218;9.884;2022-12-24T07:10:53;9.70;99.90
16879;DHT22;8556;52.218;9.884;2022-12-24T07:13:20;9.70;99.90
16879;DHT22;8556;52.218;9.884;2022-12-24T07:15:56;9.70;99.90
16879;DHT22;8556;52.218;9.884;2022-12-24T07:18:22;9.70;99.90
16879;DHT22;8556;52.218;9.884;2022-12-24T07:20:49;9.60;99.90
16879;DHT22;8556;52.218;9.884;2022-12-24T07:23:16;9.60;99.90
16879;DHT22;8556;52.218;9.884;2022-12-24T07:25:43;9.50;99.90
16879;DHT22;8556;52.218;9.884;2022-12-24T07:28:09;9.60;99.90
16879;DHT22;8556;52.218;9.884;2022-12-24T07:30:36;9.50;99.90
16879;DHT22;8556;52.218;9.884;2022-12-24T07:33:04;9.50;99.90
16879;DHT22;8556;52.218;9.884;2022-12-24T07:35:31;9.60;99.90
16879;DHT22;8556;52.218;9.884;2022-12-24T07:37:58;9.60;99.90
16879;DHT22;8556;52.218;9.884;2022-12-24T07:40:25;9.40;99.90
16879;DHT22;8556;52.218;9.884;2022-12-24T07:42:52;9.40;99.90
16879;DHT22;8556;52.218;9.884;2022-12-24T07:45:18;9.30;99.90
16879;DHT22;8556;52.218;9.884;2022-12-24T07:47:45;9.40;99.90
16879;DHT22;8556;52.218;9.884;2022-12-24T07:50:13;9.50;99.90
16879;DHT22;8556;52.218;9.884;2022-12-24T07:52:40;9.50;99.90
16879;DHT22;8556;52.218;9.884;2022-12-24T07:55:07;9.50;99.90
16879;DHT22;8556;52.218;9.884;2022-12-24T07:57:34;9.50;99.90
16879;DHT22;8556;52.218;9.884;2022-12-24T08:00:01;9.50;99.90
16879;DHT22;8556;52.218;9.884;2022-12-24T08:02:28;9.50;99.90
16879;DHT22;8556;52.218;9.884;2022-12-24T08:04:55;9.50;99.90
16879;DHT22;8556;52.218;9.884;2022-12-24T08:07:23;9.50;99.90
16879;DHT22;8556;52.218;9.884;2022-12-24T08:09:50;9.50;99.90
16879;DHT22;8556;52.218;9.884;2022-12-24T08:12:17;9.50;99.90
16879;DHT22;8556;52.218;9.884;2022-12-24T08:14:44;9.50;99.90
16879;DHT22;8556;52.218;9.884;2022-12-24T08:17:10;9.60;99.90
16879;DHT22;8556;52.218;9.884;2022-12-24T08:19:37;9.60;99.90
16879;DHT22;8556;52.218;9.884;2022-12-24T08:22:04;9.50;99.90
16879;DHT22;8556;52.218;9.884;2022-12-24T08:24:32;9.60;99.90
16879;DHT22;8556;52.218;9.884;2022-12-24T08:26:59;9.70;99.90
16879;DHT22;8556;52.218;9.884;2022-12-24T08:29:25;9.70;99.90
16879;DHT22;8556;52.218;9.884;2022-12-24T08:31:52;9.70;99.90
16879;DHT22;8556;52.218;9.884;2022-12-24T08:34:19;9.80;99.90
16879;DHT22;8556;52.218;9.884;2022-12-24T08:36:46;9.80;99.90
16879;DHT22;8556;52.218;9.884;2022-12-24T08:39:13;9.90;99.90
16879;DHT22;8556;52.218;9.884;2022-12-24T08:41:41;10.00;99.90
16879;DHT22;8556;52.218;9.884;2022-12-24T08:44:08;10.00;99.90
16879;DHT22;8556;52.218;9.884;2022-12-24T08:46:35;10.00;99.90
16879;DHT22;8556;52.218;9.884;2022-12-24T08:49:02;10.00;99.90
16879;DHT22;8556;52.218;9.884;2022-12-24T08:51:29;10.00;99.90
16879;DHT22;8556;52.218;9.884;2022-12-24T08:53:56;9.90;99.90
16879;DHT22;8556;52.218;9.884;2022-12-24T08:56:22;9.90;99.90
16879;DHT22;8556;52.218;9.884;2022-12-24T08:58:50;9.90;99.90
16879;DHT22;8556;52.218;9.884;2022-12-24T09:01:18;9.80;99.90
16879;DHT22;8556;52.218;9.884;2022-12-24T09:03:46;9.80;99.90
16879;DHT22;8556;52.218;9.884;2022-12-24T09:06:13;9.80;99.90
16879;DHT22;8556;52.218;9.884;2022-12-24T09:08:40;9.80;99.90
16879;DHT22;8556;52.218;9.884;2022-12-24T09:11:10;9.80;99.90
16879;DHT22;8556;52.218;9.884;2022-12-24T09:13:37;9.90;99.90
16879;DHT22;8556;52.218;9.884;2022-12-24T09:16:06;9.90;99.90
16879;DHT22;8556;52.218;9.884;2022-12-24T09:18:33;10.00;99.90
16879;DHT22;8556;52.218;9.884;2022-12-24T09:21:01;10.00;99.90
16879;DHT22;8556;52.218;9.884;2022-12-24T09:23:29;10.10;99.90
16879;DHT22;8556;52.218;9.884;2022-12-24T09:25:57;10.10;99.90
16879;DHT22;8556;52.218;9.884;2022-12-24T09:28:24;10.10;99.90
16879;DHT22;8556;52.218;9.884;2022-12-24T09:30:57;10.10;99.90
16879;DHT22;8556;52.218;9.884;2022-12-24T09:33:26;10.20;99.90
16879;DHT22;8556;52.218;9.884;2022-12-24T09:35:53;10.20;99.90
16879;DHT22;8556;52.218;9.884;2022-12-24T09:38:21;10.40;99.90
16879;DHT22;8556;52.218;9.884;2022-12-24T09:40:48;10.30;99.90
16879;DHT22;8556;52.218;9.884;2022-12-24T09:43:17;10.30;99.90
16879;DHT22;8556;52.218;9.884;2022-12-24T09:45:51;10.30;99.90
16879;DHT22;8556;52.218;9.884;2022-12-24T09:48:23;10.30;99.90
16879;DHT22;8556;52.218;9.884;2022-12-24T09:50:54;10.20;99.90
16879;DHT22;8556;52.218;9.884;2022-12-24T09:53:26;10.30;99.90
16879;DHT22;8556;52.218;9.884;2022-12-24T09:55:57;10.40;99.90
16879;DHT22;8556;52.218;9.884;2022-12-24T09:58:28;10.40;99.90
16879;DHT22;8556;52.218;9.884;2022-12-24T10:00:56;10.40;99.90
16879;DHT22;8556;52.218;9.884;2022-12-24T10:03:23;10.30;99.90
16879;DHT22;8556;52.218;9.884;2022-12-24T10:06:03;10.40;99.90
16879;DHT22;8556;52.218;9.884;2022-12-24T10:08:42;10.40;99.90
16879;DHT22;8556;52.218;9.884;2022-12-24T10:11:15;10.50;99.90
16879;DHT22;8556;52.218;9.884;2022-12-24T10:13:58;10.50;99.90
16879;DHT22;8556;52.218;9.884;2022-12-24T10:16:37;10.50;99.90
16879;DHT22;8556;52.218;9.884;2022-12-24T10:19:13;10.50;99.90
16879;DHT22;8556;52.218;9.884;2022-12-24T10:21:53;10.50;99.90
16879;DHT22;8556;52.218;9.884;2022-12-24T10:24:26;10.50;99.90
16879;DHT22;8556;52.218;9.884;2022-12-24T10:27:00;10.50;99.90
16879;DHT22;8556;52.218;9.884;2022-12-24T10:29:29;10.50;99.90
16879;DHT22;8556;52.218;9.884;2022-12-24T10:32:00;10.50;99.90
16879;DHT22;8556;52.218;9.884;2022-12-24T10:34:34;10.50;99.90
16879;DHT22;8556;52.218;9.884;2022-12-24T10:37:03;10.50;99.90
16879;DHT22;8556;52.218;9.884;2022-12-24T10:39:30;10.50;99.90
16879;DHT22;8556;52.218;9.884;2022-12-24T10:41:58;10.50;99.90
16879;DHT22;8556;52.218;9.884;2022-12-24T10:44:29;10.70;99.90
16879;DHT22;8556;52.218;9.884;2022-12-24T10:46:57;10.60;99.90
16879;DHT22;8556;52.218;9.884;2022-12-24T10:49:30;10.70;99.90
16879;DHT22;8556;52.218;9.884;2022-12-24T10:52:04;10.70;99.90
16879;DHT22;8556;52.218;9.884;2022-12-24T10:54:32;10.70;99.90
16879;DHT22;8556;52.218;9.884;2022-12-24T10:57:05;10.60;99.90
16879;DHT22;8556;52.218;9.884;2022-12-24T10:59:39;10.60;99.90
16879;DHT22;8556;52.218;9.884;2022-12-24T11:02:25;10.60;99.90
16879;DHT22;8556;52.218;9.884;2022-12-24T11:04:52;10.60;99.90
16879;DHT22;8556;52.218;9.884;2022-12-24T11:07:22;10.60;99.90
16879;DHT22;8556;52.218;9.884;2022-12-24T11:09:55;10.60;99.90
16879;DHT22;8556;52.218;9.884;2022-12-24T11:12:24;10.70;99.90
16879;DHT22;8556;52.218;9.884;2022-12-24T11:15:00;10.50;99.90
16879;DHT22;8556;52.218;9.884;2022-12-24T11:17:27;10.50;99.90
16879;DHT22;8556;52.218;9.884;2022-12-24T11:19:55;10.50;99.90
16879;DHT22;8556;52.218;9.884;2022-12-24T11:22:25;10.50;99.90
16879;DHT22;8556;52.218;9.884;2022-12-24T11:25:02;10.40;99.90
16879;DHT22;8556;52.218;9.884;2022-12-24T11:27:39;10.40;99.90
16879;DHT22;8556;52.218;9.884;2022-12-24T11:30:22;10.30;99.90
16879;DHT22;8556;52.218;9.884;2022-12-24T11:32:50;10.30;99.90
16879;DHT22;8556;52.218;9.884;2022-12-24T11:35:39;10.30;99.90
16879;DHT22;8556;52.218;9.884;2022-12-24T11:38:11;10.30;99.90
16879;DHT22;8556;52.218;9.884;2022-12-24T11:40:43;10.20;99.90
16879;DHT22;8556;52.218;9.884;2022-12-24T11:43:15;10.20;99.90
16879;DHT22;8556;52.218;9.884;2022-12-24T11:45:48;10.20;99.90
16879;DHT22;8556;52.218;9.884;2022-12-24T11:48:27;10.20;99.90
16879;DHT22;8556;52.218;9.884;2022-12-24T11:50:57;10.20;99.90
16879;DHT22;8556;52.218;9.884;2022-12-24T11:53:29;10.10;99.90
16879;DHT22;8556;52.218;9.884;2022-12-24T11:55:59;10.10;99.90
16879;DHT22;8556;52.218;9.884;2022-12-24T11:58:29;10.00;99.90
16879;DHT22;8556;52.218;9.884;2022-12-24T12:01:02;10.00;99.90
16879;DHT22;8556;52.218;9.884;2022-12-24T12:03:33;9.90;99.90
16879;DHT22;8556;52.218;9.884;2022-12-24T12:06:03;9.90;99.90
16879;DHT22;8556;52.218;9.884;2022-12-24T12:08:34;9.80;99.90
16879;DHT22;8556;52.218;9.884;2022-12-24T12:11:03;9.80;99.90
16879;DHT22;8556;52.218;9.884;2022-12-24T12:13:36;9.70;99.90
16879;DHT22;8556;52.218;9.884;2022-12-24T12:16:16;9.70;99.90
16879;DHT22;8556;52.218;9.884;2022-12-24T12:18:47;9.70;99.90
16879;DHT22;8556;52.218;9.884;2022-12-24T12:21:17;9.70;99.90
16879;DHT22;8556;52.218;9.884;2022-12-24T12:23:49;9.70;99.90
16879;DHT22;8556;52.218;9.884;2022-12-24T12:26:21;9.80;99.90
16879;DHT22;8556;52.218;9.884;2022-12-24T12:28:51;9.70;99.90
16879;DHT22;8556;52.218;9.884;2022-12-24T12:31:22;9.90;99.90
16879;DHT22;8556;52.218;9.884;2022-12-24T12:33:53;9.80;99.90
16879;DHT22;8556;52.218;9.884;2022-12-24T12:36:25;9.90;99.90
16879;DHT22;8556;52.218;9.884;2022-12-24T12:38:55;9.90;99.90
16879;DHT22;8556;52.218;9.884;2022-12-24T12:41:34;10.00;99.90
16879;DHT22;8556;52.218;9.884;2022-12-24T12:44:31;10.00;99.90
16879;DHT22;8556;52.218;9.884;2022-12-24T12:50:09;10.10;99.90
16879;DHT22;8556;52.218;9.884;2022-12-24T12:53:12;10.40;99.90
16879;DHT22;8556;52.218;9.884;2022-12-24T12:55:51;10.50;99.90
16879;DHT22;8556;52.218;9.884;2022-12-24T12:58:25;10.40;99.90
16879;DHT22;8556;52.218;9.884;2022-12-24T13:00:57;10.30;99.90
16879;DHT22;8556;52.218;9.884;2022-12-24T13:06:49;10.50;99.90
16879;DHT22;8556;52.218;9.884;2022-12-24T13:09:44;10.30;99.90
16879;DHT22;8556;52.218;9.884;2022-12-24T13:12:29;10.20;99.90
16879;DHT22;8556;52.218;9.884;2022-12-24T13:15:10;10.20;99.90
16879;DHT22;8556;52.218;9.884;2022-12-24T13:18:05;10.20;99.90
16879;DHT22;8556;52.218;9.884;2022-12-24T13:20:39;10.20;99.90
16879;DHT22;8556;52.218;9.884;2022-12-24T13:23:12;10.20;99.90
16879;DHT22;8556;52.218;9.884;2022-12-24T13:25:42;10.30;99.90
16879;DHT22;8556;52.218;9.884;2022-12-24T13:28:16;10.30;99.90
16879;DHT22;8556;52.218;9.884;2022-12-24T13:30:43;10.40;99.90
16879;DHT22;8556;52.218;9.884;2022-12-24T13:33:11;10.50;99.90
16879;DHT22;8556;52.218;9.884;2022-12-24T13:35:56;10.60;99.90
16879;DHT22;8556;52.218;9.884;2022-12-24T13:38:38;10.60;99.90
16879;DHT22;8556;52.218;9.884;2022-12-24T13:44:24;10.60;99.90
16879;DHT22;8556;52.218;9.884;2022-12-24T13:47:00;10.60;99.90
16879;DHT22;8556;52.218;9.884;2022-12-24T13:49:34;10.60;99.90
16879;DHT22;8556;52.218;9.884;2022-12-24T13:52:21;10.50;99.90
16879;DHT22;8556;52.218;9.884;2022-12-24T13:55:13;10.60;99.90
16879;DHT22;8556;52.218;9.884;2022-12-24T13:57:45;10.60;99.90
16879;DHT22;8556;52.218;9.884;2022-12-24T14:00:41;10.60;99.90
16879;DHT22;8556;52.218;9.884;2022-12-24T14:03:22;10.60;99.90
16879;DHT22;8556;52.218;9.884;2022-12-24T14:05:52;10.50;99.90
16879;DHT22;8556;52.218;9.884;2022-12-24T14:08:30;10.60;99.90
16879;DHT22;8556;52.218;9.884;2022-12-24T14:11:08;10.50;99.90
16879;DHT22;8556;52.218;9.884;2022-12-24T14:16:49;10.60;99.90
16879;DHT22;8556;52.218;9.884;2022-12-24T14:19:20;10.60;99.90
16879;DHT22;8556;52.218;9.884;2022-12-24T14:21:55;10.60;99.90
16879;DHT22;8556;52.218;9.884;2022-12-24T14:24:24;10.50;99.90
16879;DHT22;8556;52.218;9.884;2022-12-24T14:26:55;10.50;99.90
16879;DHT22;8556;52.218;9.884;2022-12-24T14:29:26;10.50;99.90
16879;DHT22;8556;52.218;9.884;2022-12-24T14:31:57;10.50;99.90
16879;DHT22;8556;52.218;9.884;2022-12-24T14:34:24;10.50;99.90
16879;DHT22;8556;52.218;9.884;2022-12-24T14:36:53;10.50;99.90
16879;DHT22;8556;52.218;9.884;2022-12-24T14:39:23;10.50;99.90
16879;DHT22;8556;52.218;9.884;2022-12-24T14:42:00;10.60;99.90
16879;DHT22;8556;52.218;9.884;2022-12-24T14:44:37;10.50;99.90
16879;DHT22;8556;52.218;9.884;2022-12-24T14:47:18;10.50;99.90
16879;DHT22;8556;52.218;9.884;2022-12-24T14:50:21;10.50;99.90
16879;DHT22;8556;52.218;9.884;2022-12-24T14:52:57;10.50;99.90
16879;DHT22;8556;52.218;9.884;2022-12-24T14:55:35;10.50;99.90
16879;DHT22;8556;52.218;9.884;2022-12-24T14:58:23;10.50;99.90
16879;DHT22;8556;52.218;9.884;2022-12-24T15:00:52;10.40;99.90
16879;DHT22;8556;52.218;9.884;2022-12-24T15:03:22;10.30;99.90
16879;DHT22;8556;52.218;9.884;2022-12-24T15:05:51;10.30;99.90
16879;DHT22;8556;52.218;9.884;2022-12-24T15:08:28;10.30;99.90
16879;DHT22;8556;52.218;9.884;2022-12-24T15:11:00;10.40;99.90
16879;DHT22;8556;52.218;9.884;2022-12-24T15:13:32;10.30;99.90
16879;DHT22;8556;52.218;9.884;2022-12-24T15:16:01;10.40;99.90
16879;DHT22;8556;52.218;9.884;2022-12-24T15:18:31;10.30;99.90
16879;DHT22;8556;52.218;9.884;2022-12-24T15:21:00;10.20;99.90
16879;DHT22;8556;52.218;9.884;2022-12-24T15:23:30;10.10;99.90
16879;DHT22;8556;52.218;9.884;2022-12-24T15:26:22;10.10;99.90
16879;DHT22;8556;52.218;9.884;2022-12-24T15:28:49;10.00;99.90
16879;DHT22;8556;52.218;9.884;2022-12-24T15:31:18;9.90;99.90
16879;DHT22;8556;52.218;9.884;2022-12-24T15:33:48;10.00;99.90
16879;DHT22;8556;52.218;9.884;2022-12-24T15:36:22;9.80;99.90
16879;DHT22;8556;52.218;9.884;2022-12-24T15:38:51;9.70;99.90
16879;DHT22;8556;52.218;9.884;2022-12-24T15:41:21;9.70;99.90
16879;DHT22;8556;52.218;9.884;2022-12-24T15:43:50;9.60;99.90
16879;DHT22;8556;52.218;9.884;2022-12-24T15:46:19;9.50;99.90
16879;DHT22;8556;52.218;9.884;2022-12-24T15:48:48;9.40;99.90
16879;DHT22;8556;52.218;9.884;2022-12-24T15:51:22;9.30;99.90
16879;DHT22;8556;52.218;9.884;2022-12-24T15:53:54;9.40;99.90
16879;DHT22;8556;52.218;9.884;2022-12-24T15:56:34;9.30;99.90
16879;DHT22;8556;52.218;9.884;2022-12-24T15:59:12;9.40;99.90
16879;DHT22;8556;52.218;9.884;2022-12-24T16:01:39;9.30;99.90
16879;DHT22;8556;52.218;9.884;2022-12-24T16:04:13;9.20;99.90
16879;DHT22;8556;52.218;9.884;2022-12-24T16:06:54;9.20;99.90
16879;DHT22;8556;52.218;9.884;2022-12-24T16:09:35;9.10;99.90
16879;DHT22;8556;52.218;9.884;2022-12-24T16:12:15;9.20;99.90
16879;DHT22;8556;52.218;9.884;2022-12-24T16:14:46;9.20;99.90
16879;DHT22;8556;52.218;9.884;2022-12-24T16:17:19;9.10;99.90
16879;DHT22;8556;52.218;9.884;2022-12-24T16:19:49;9.10;99.90
16879;DHT22;8556;52.218;9.884;2022-12-24T16:22:18;9.00;99.90
16879;DHT22;8556;52.218;9.884;2022-12-24T16:25:21;8.90;99.90
16879;DHT22;8556;52.218;9.884;2022-12-24T16:27:48;8.70;99.90
16879;DHT22;8556;52.218;9.884;2022-12-24T16:30:15;8.60;99.90
16879;DHT22;8556;52.218;9.884;2022-12-24T16:32:42;8.50;99.90